Time;durP1;ratioP1;P1;durP2;ratioP2;P2;SDS_P1;SDS_P2;PMS_P1;PMS_P2;Temp;Humidity;BMP_temperature;BMP_pressure;BME280_temperature;BME280_humidity;BME280_pressure;Samples;Min_cycle;Max_cycle;Signal;HPM_P1;HPM_P2
2022/11/26 00:00:17;;;;;;;1.27;1.08;;;8.00;99.90;;;;;;4386740;32;20117;-71
2022/11/26 00:02:44;;;;;;;8.95;1.15;;;7.90;99.90;;;;;;4389460;32;20101;-73
2022/11/26 00:05:12;;;;;;;5.62;2.53;;;8.00;99.90;;;;;;4373648;32;20078;-72
2022/11/26 00:07:38;;;;;;;1.37;1.00;;;7.90;99.90;;;;;;4379303;32;20062;-69
2022/11/26 00:10:12;;;;;;;3.85;0.90;;;7.90;99.90;;;;;;4385559;32;20070;-72
2022/11/26 00:12:38;;;;;;;10.88;1.30;;;7.90;99.90;;;;;;4389051;32;20086;-70
2022/11/26 00:15:22;;;;;;;3.30;1.90;;;7.90;99.90;;;;;;4381292;32;20125;-73
2022/11/26 00:17:49;;;;;;;1.17;1.10;;;7.90;99.90;;;;;;4388190;32;20140;-72
2022/11/26 00:20:16;;;;;;;4.15;1.15;;;7.90;99.90;;;;;;4388627;32;20129;-70
2022/11/26 00:22:45;;;;;;;0.80;0.80;;;8.00;99.90;;;;;;4388891;32;20058;-72
2022/11/26 00:25:14;;;;;;;2.40;1.10;;;7.90;99.90;;;;;;4386902;32;20073;-72
2022/11/26 00:27:40;;;;;;;0.82;0.80;;;7.90;99.90;;;;;;4380040;32;20102;-71
2022/11/26 00:30:13;;;;;;;2.42;1.80;;;8.00;99.90;;;;;;4384082;32;20625;-72
2022/11/26 00:32:39;;;;;;;6.25;1.80;;;8.00;99.90;;;;;;4386508;32;20081;-75
2022/11/26 00:35:05;;;;;;;2.55;1.50;;;8.00;99.90;;;;;;4367118;32;20475;-75
2022/11/26 00:37:42;;;;;;;5.40;1.83;;;7.90;99.90;;;;;;4378417;32;20082;-72
2022/11/26 00:40:18;;;;;;;1.55;1.00;;;8.00;99.90;;;;;;4391613;32;20112;-71
2022/11/26 00:42:43;;;;;;;7.82;0.75;;;7.90;99.90;;;;;;4389240;32;20112;-70
2022/11/26 00:45:18;;;;;;;2.20;1.48;;;7.90;99.90;;;;;;4374601;32;20066;-75
2022/11/26 00:47:44;;;;;;;0.93;0.93;;;7.90;99.90;;;;;;4388610;32;20070;-71
2022/11/26 00:50:15;;;;;;;1.17;1.10;;;7.90;99.90;;;;;;4389943;32;20444;-71
2022/11/26 00:52:42;;;;;;;1.75;1.23;;;7.90;99.90;;;;;;4384659;32;20080;-70
2022/11/26 00:55:23;;;;;;;2.87;1.10;;;7.90;99.90;;;;;;4388385;32;20089;-74
2022/11/26 00:57:49;;;;;;;1.87;1.67;;;7.90;99.90;;;;;;4364445;32;20424;-75
2022/11/26 01:00:16;;;;;;;0.95;0.95;;;7.90;99.90;;;;;;4385198;32;20169;-71
2022/11/26 01:02:42;;;;;;;0.70;0.70;;;7.90;99.90;;;;;;4383991;32;20123;-75
2022/11/26 01:05:08;;;;;;;9.95;1.40;;;7.90;99.90;;;;;;4367306;32;21781;-71
2022/11/26 01:07:34;;;;;;;3.15;1.87;;;8.00;99.90;;;;;;4378073;32;20110;-71
2022/11/26 01:09:59;;;;;;;2.92;1.55;;;8.00;99.90;;;;;;4386209;32;20062;-71
2022/11/26 01:12:24;;;;;;;2.62;1.35;;;8.00;99.90;;;;;;4389978;32;20065;-70
2022/11/26 01:14:50;;;;;;;2.40;1.15;;;8.00;99.90;;;;;;4380013;32;20066;-72
2022/11/26 01:17:15;;;;;;;6.75;1.98;;;8.00;99.90;;;;;;4384829;32;20090;-70
2022/11/26 01:19:41;;;;;;;1.25;1.20;;;8.00;99.90;;;;;;4387581;32;20062;-71
2022/11/26 01:22:18;;;;;;;3.20;0.82;;;8.00;99.90;;;;;;4386616;32;20132;-70
2022/11/26 01:24:44;;;;;;;2.05;1.25;;;8.00;99.90;;;;;;4389273;32;20082;-70
2022/11/26 01:27:11;;;;;;;1.62;1.50;;;7.90;99.90;;;;;;4382316;32;20078;-73
2022/11/26 01:29:36;;;;;;;1.37;1.27;;;7.90;99.90;;;;;;4379361;32;20086;-71
2022/11/26 01:32:02;;;;;;;1.85;1.50;;;7.90;99.90;;;;;;4388084;32;20070;-70
2022/11/26 01:34:28;;;;;;;9.05;2.37;;;8.00;99.90;;;;;;4370717;32;20121;-74
2022/11/26 01:36:53;;;;;;;4.80;1.35;;;7.90;99.90;;;;;;4371263;32;20152;-70
2022/11/26 01:39:22;;;;;;;0.60;0.60;;;8.00;99.90;;;;;;4389615;32;20107;-72
2022/11/26 01:42:06;;;;;;;4.25;1.92;;;8.00;99.90;;;;;;4385137;32;20107;-71
2022/11/26 01:44:34;;;;;;;2.10;0.57;;;7.90;99.90;;;;;;4377718;32;20165;-71
2022/11/26 01:47:01;;;;;;;1.37;1.15;;;8.00;99.90;;;;;;4382621;32;20404;-70
2022/11/26 01:49:29;;;;;;;1.40;1.30;;;7.90;99.90;;;;;;4386299;32;20106;-71
2022/11/26 01:52:18;;;;;;;2.47;1.33;;;8.00;99.90;;;;;;4387220;32;20085;-74
2022/11/26 01:54:44;;;;;;;1.52;1.05;;;8.00;99.90;;;;;;4388772;32;20178;-73
2022/11/26 01:57:17;;;;;;;1.52;0.90;;;7.90;99.90;;;;;;4380416;32;20093;-74
2022/11/26 01:59:48;;;;;;;1.92;1.25;;;7.90;99.90;;;;;;4378300;32;20149;-72
2022/11/26 02:02:13;;;;;;;0.93;0.93;;;7.90;99.90;;;;;;4388853;32;20082;-73
2022/11/26 02:04:49;;;;;;;7.97;1.05;;;8.00;99.90;;;;;;4367879;32;20118;-72
2022/11/26 02:07:15;;;;;;;2.10;1.17;;;8.00;99.90;;;;;;4374632;32;20505;-72
2022/11/26 02:09:41;;;;;;;6.30;2.53;;;8.00;99.90;;;;;;4384081;32;20078;-71
2022/11/26 02:12:06;;;;;;;0.77;0.77;;;8.00;99.90;;;;;;4388088;32;20070;-72
2022/11/26 02:14:35;;;;;;;3.78;1.52;;;8.00;99.90;;;;;;4378360;32;20448;-70
2022/11/26 02:17:23;;;;;;;1.12;1.02;;;8.00;99.90;;;;;;4379864;32;20106;-72
2022/11/26 02:20:10;;;;;;;1.95;1.20;;;8.00;99.90;;;;;;4371851;32;20077;-73
2022/11/26 02:22:49;;;;;;;1.40;1.12;;;8.00;99.90;;;;;;4377795;32;20078;-71
2022/11/26 02:25:26;;;;;;;1.65;1.17;;;8.00;99.90;;;;;;4389302;32;20148;-70
2022/11/26 02:28:15;;;;;;;2.22;1.10;;;7.90;99.90;;;;;;4378511;32;20091;-72
2022/11/26 02:30:45;;;;;;;5.57;1.80;;;8.00;99.90;;;;;;4384361;32;20066;-69
2022/11/26 02:33:27;;;;;;;10.23;3.10;;;8.00;99.90;;;;;;4379626;32;20459;-71
2022/11/26 02:36:01;;;;;;;2.67;1.10;;;8.00;99.90;;;;;;4367767;32;20094;-71
2022/11/26 02:38:29;;;;;;;15.45;2.50;;;8.00;99.90;;;;;;4381624;32;20094;-70
2022/11/26 02:40:55;;;;;;;0.80;0.80;;;8.00;99.90;;;;;;4383442;32;20098;-69
2022/11/26 02:43:22;;;;;;;1.73;1.33;;;8.00;99.90;;;;;;4387175;32;20061;-73
2022/11/26 02:45:54;;;;;;;13.43;2.40;;;8.00;99.90;;;;;;4372574;32;20598;-71
2022/11/26 02:48:24;;;;;;;3.42;1.65;;;8.00;99.90;;;;;;4388875;32;20066;-71
2022/11/26 02:50:55;;;;;;;14.77;2.97;;;8.00;99.90;;;;;;4385925;32;20082;-70
2022/11/26 02:53:24;;;;;;;13.20;2.78;;;8.00;99.90;;;;;;4385005;32;20066;-70
2022/11/26 02:55:56;;;;;;;3.03;1.42;;;8.00;99.90;;;;;;4384701;32;20086;-71
2022/11/26 02:58:21;;;;;;;2.25;1.77;;;8.00;99.90;;;;;;4374401;32;20066;-70
2022/11/26 03:00:48;;;;;;;3.20;1.85;;;8.00;99.90;;;;;;4385430;32;20510;-69
2022/11/26 03:03:22;;;;;;;3.37;1.27;;;8.10;99.90;;;;;;4382324;32;20121;-74
2022/11/26 03:05:52;;;;;;;1.55;0.88;;;8.00;99.90;;;;;;4367341;32;20233;-75
2022/11/26 03:08:18;;;;;;;11.23;2.75;;;8.10;99.90;;;;;;4382561;32;20071;-71
2022/11/26 03:10:44;;;;;;;6.10;1.98;;;8.10;99.90;;;;;;4383452;32;20094;-71
2022/11/26 03:13:09;;;;;;;1.42;1.33;;;8.10;99.90;;;;;;4385842;32;20120;-72
2022/11/26 03:15:35;;;;;;;3.37;1.30;;;8.10;99.90;;;;;;4374888;32;20732;-74
2022/11/26 03:18:00;;;;;;;4.15;2.75;;;8.10;99.90;;;;;;4386276;32;20083;-70
2022/11/26 03:20:26;;;;;;;7.05;2.10;;;8.10;99.90;;;;;;4382159;32;20073;-71
2022/11/26 03:22:51;;;;;;;6.30;2.12;;;8.10;99.90;;;;;;4386935;32;20153;-71
2022/11/26 03:25:17;;;;;;;4.30;1.27;;;8.10;99.90;;;;;;4385870;32;20597;-71
2022/11/26 03:27:43;;;;;;;2.62;0.68;;;8.10;99.90;;;;;;4376630;32;20569;-71
2022/11/26 03:30:08;;;;;;;3.45;2.53;;;8.10;99.90;;;;;;4379766;32;20085;-71
2022/11/26 03:32:34;;;;;;;23.75;2.25;;;8.10;99.90;;;;;;4384464;32;20129;-74
2022/11/26 03:35:00;;;;;;;3.58;1.70;;;8.10;99.90;;;;;;4369773;32;20122;-74
2022/11/26 03:37:25;;;;;;;9.85;1.75;;;8.10;99.90;;;;;;4375893;32;20838;-71
2022/11/26 03:39:51;;;;;;;6.35;2.47;;;8.10;99.90;;;;;;4385690;32;20077;-71
2022/11/26 03:42:16;;;;;;;4.00;1.48;;;8.10;99.90;;;;;;4389810;32;20079;-71
2022/11/26 03:44:42;;;;;;;11.68;2.87;;;8.10;99.90;;;;;;4377615;32;20062;-74
2022/11/26 03:47:07;;;;;;;1.50;1.30;;;8.10;99.90;;;;;;4383944;32;20458;-70
2022/11/26 03:49:33;;;;;;;8.70;3.62;;;8.10;99.90;;;;;;4386730;32;20062;-72
2022/11/26 03:51:58;;;;;;;4.30;1.80;;;8.10;99.90;;;;;;4388345;32;20547;-73
2022/11/26 03:54:24;;;;;;;5.32;2.08;;;8.10;99.90;;;;;;4387729;32;20086;-70
2022/11/26 03:56:49;;;;;;;4.12;1.65;;;8.20;99.90;;;;;;4384176;32;20070;-71
2022/11/26 03:59:15;;;;;;;2.95;1.83;;;8.10;99.90;;;;;;4378657;32;20098;-71
2022/11/26 04:01:40;;;;;;;1.20;1.10;;;8.10;99.90;;;;;;4388195;32;20078;-74
2022/11/26 04:04:05;;;;;;;2.35;1.33;;;8.10;99.90;;;;;;4376453;32;20070;-74
2022/11/26 04:06:31;;;;;;;3.50;1.50;;;8.10;99.90;;;;;;4374542;32;20126;-71
2022/11/26 04:08:56;;;;;;;7.80;1.95;;;8.20;99.90;;;;;;4389619;32;20091;-72
2022/11/26 04:11:22;;;;;;;1.87;1.17;;;8.10;99.90;;;;;;4390893;32;20123;-70
2022/11/26 04:13:47;;;;;;;17.33;2.50;;;8.10;99.90;;;;;;4382921;32;20079;-73
2022/11/26 04:16:13;;;;;;;32.50;2.25;;;8.10;99.90;;;;;;4380307;32;20067;-71
2022/11/26 04:18:38;;;;;;;6.00;1.95;;;8.10;99.90;;;;;;4384945;32;20094;-72
2022/11/26 04:21:06;;;;;;;8.52;2.05;;;8.10;99.90;;;;;;4388822;32;20834;-72
2022/11/26 04:23:32;;;;;;;1.12;1.02;;;8.10;99.90;;;;;;4392174;32;20075;-71
2022/11/26 04:25:57;;;;;;;19.52;1.65;;;8.10;99.90;;;;;;4390283;32;20523;-72
2022/11/26 04:28:23;;;;;;;1.40;1.12;;;8.10;99.90;;;;;;4379729;32;20086;-74
2022/11/26 04:30:48;;;;;;;3.40;1.62;;;8.10;99.90;;;;;;4387797;32;20069;-71
2022/11/26 04:33:14;;;;;;;7.97;1.80;;;8.10;99.90;;;;;;4383441;32;20598;-72
2022/11/26 04:35:39;;;;;;;3.28;1.40;;;8.10;99.90;;;;;;4365918;32;20078;-74
2022/11/26 04:38:05;;;;;;;5.47;1.87;;;8.10;99.90;;;;;;4390333;32;20062;-71
2022/11/26 04:40:30;;;;;;;12.70;2.00;;;8.10;99.90;;;;;;4384505;32;20071;-73
2022/11/26 04:42:56;;;;;;;1.65;1.30;;;8.10;99.90;;;;;;4390532;32;20153;-75
2022/11/26 04:45:21;;;;;;;1.62;1.35;;;8.20;99.90;;;;;;4374030;32;20095;-74
2022/11/26 04:47:47;;;;;;;10.00;1.20;;;8.20;99.90;;;;;;4387681;32;20082;-73
2022/11/26 04:50:12;;;;;;;34.83;1.90;;;8.20;99.90;;;;;;4388977;32;21343;-72
2022/11/26 04:52:38;;;;;;;3.42;1.73;;;8.20;99.90;;;;;;4385568;32;20082;-70
2022/11/26 04:55:03;;;;;;;3.85;2.08;;;8.20;99.90;;;;;;4388779;32;20095;-71
2022/11/26 04:57:29;;;;;;;1.52;1.42;;;8.20;99.90;;;;;;4378064;32;20078;-73
2022/11/26 04:59:55;;;;;;;0.90;0.88;;;8.20;99.90;;;;;;4384402;32;20110;-71
2022/11/26 05:02:20;;;;;;;2.12;1.05;;;8.20;99.90;;;;;;4390822;32;20082;-73
2022/11/26 05:04:45;;;;;;;2.47;1.55;;;8.20;99.90;;;;;;4371440;32;20074;-73
2022/11/26 05:07:11;;;;;;;2.70;1.50;;;8.30;99.90;;;;;;4375052;32;20083;-70
2022/11/26 05:09:36;;;;;;;1.12;0.93;;;8.30;99.90;;;;;;4386042;32;20086;-71
2022/11/26 05:12:02;;;;;;;7.40;2.47;;;8.20;99.90;;;;;;4387081;32;20074;-71
2022/11/26 05:14:27;;;;;;;6.82;2.80;;;8.30;99.90;;;;;;4381740;32;20102;-75
2022/11/26 05:16:53;;;;;;;1.50;1.40;;;8.30;99.90;;;;;;4381394;32;20106;-71
2022/11/26 05:19:18;;;;;;;2.80;1.80;;;8.40;99.90;;;;;;4389502;32;20078;-70
2022/11/26 05:21:44;;;;;;;1.70;1.10;;;8.30;99.90;;;;;;4388003;32;20097;-71
2022/11/26 05:24:09;;;;;;;5.47;1.73;;;8.30;99.90;;;;;;4386493;32;20110;-74
2022/11/26 05:26:35;;;;;;;0.80;0.80;;;8.30;99.90;;;;;;4385625;32;20070;-73
2022/11/26 05:29:00;;;;;;;1.08;1.02;;;8.30;99.90;;;;;;4381913;32;20142;-72
2022/11/26 05:31:27;;;;;;;2.12;1.67;;;8.30;99.90;;;;;;4385255;32;20074;-71
2022/11/26 05:33:53;;;;;;;4.47;1.87;;;8.30;99.90;;;;;;4376647;32;20147;-75
2022/11/26 05:36:18;;;;;;;0.93;0.68;;;8.30;99.90;;;;;;4367037;32;20074;-73
2022/11/26 05:38:44;;;;;;;6.62;2.20;;;8.30;99.90;;;;;;4386661;32;20082;-71
2022/11/26 05:41:09;;;;;;;4.50;2.42;;;8.30;99.90;;;;;;4383223;32;20078;-70
2022/11/26 05:43:35;;;;;;;0.65;0.65;;;8.30;99.90;;;;;;4383136;32;20420;-74
2022/11/26 05:46:06;;;;;;;3.17;1.33;;;8.30;99.90;;;;;;4375525;32;20093;-70
2022/11/26 05:48:32;;;;;;;2.20;1.37;;;8.30;99.90;;;;;;4385246;32;20090;-71
2022/11/26 05:51:00;;;;;;;6.50;1.23;;;8.30;99.90;;;;;;4386167;32;20400;-71
2022/11/26 05:53:26;;;;;;;1.15;1.10;;;8.30;99.90;;;;;;4386578;32;20577;-70
2022/11/26 05:55:51;;;;;;;1.02;1.02;;;8.30;99.90;;;;;;4383063;32;20082;-70
2022/11/26 05:58:17;;;;;;;2.35;1.52;;;8.30;99.90;;;;;;4374400;32;20070;-74
2022/11/26 06:00:42;;;;;;;4.95;1.92;;;8.30;99.90;;;;;;4387866;32;20175;-71
2022/11/26 06:03:08;;;;;;;2.15;1.67;;;8.30;99.90;;;;;;4384787;32;20558;-73
2022/11/26 06:05:33;;;;;;;6.53;2.20;;;8.30;99.90;;;;;;4364435;32;20073;-73
2022/11/26 06:07:59;;;;;;;1.25;1.15;;;8.30;99.90;;;;;;4381562;32;20074;-72
2022/11/26 06:10:24;;;;;;;0.50;0.50;;;8.40;99.90;;;;;;4385636;32;20172;-73
2022/11/26 06:12:50;;;;;;;0.93;0.85;;;8.30;99.90;;;;;;4388125;32;20070;-72
2022/11/26 06:15:16;;;;;;;0.50;0.50;;;8.30;99.90;;;;;;4374742;32;20090;-72
2022/11/26 06:17:41;;;;;;;0.75;0.73;;;8.40;99.90;;;;;;4382985;32;20059;-73
2022/11/26 06:20:07;;;;;;;13.60;2.05;;;8.30;99.90;;;;;;4388996;32;20073;-71
2022/11/26 06:22:37;;;;;;;1.55;0.75;;;8.30;99.90;;;;;;4389422;32;20086;-70
2022/11/26 06:25:03;;;;;;;1.67;1.57;;;8.30;99.90;;;;;;4386834;32;20094;-75
2022/11/26 06:27:28;;;;;;;3.15;1.77;;;8.30;99.90;;;;;;4375931;32;20067;-74
2022/11/26 06:29:54;;;;;;;4.68;1.05;;;8.40;99.90;;;;;;4380858;32;20085;-71
2022/11/26 06:32:19;;;;;;;0.85;0.85;;;8.40;99.90;;;;;;4385345;32;20117;-72
2022/11/26 06:34:45;;;;;;;1.77;0.80;;;8.40;99.90;;;;;;4369909;32;20102;-73
2022/11/26 06:37:10;;;;;;;0.70;0.62;;;8.30;99.90;;;;;;4376131;32;20089;-71
2022/11/26 06:39:35;;;;;;;17.45;1.20;;;8.30;99.90;;;;;;4386914;32;20129;-72
2022/11/26 06:42:01;;;;;;;0.43;0.43;;;8.30;99.90;;;;;;4387042;32;20054;-71
2022/11/26 06:44:26;;;;;;;5.20;1.48;;;8.30;99.90;;;;;;4378835;32;20114;-75
2022/11/26 06:46:52;;;;;;;1.48;1.17;;;8.30;99.90;;;;;;4382225;32;20098;-70
2022/11/26 06:49:17;;;;;;;2.15;1.08;;;8.30;99.90;;;;;;4372078;32;20196;-72
2022/11/26 06:51:43;;;;;;;6.95;2.78;;;8.30;99.90;;;;;;4384369;32;20094;-70
2022/11/26 06:54:08;;;;;;;1.12;1.12;;;8.30;99.90;;;;;;4387063;32;20074;-71
2022/11/26 06:56:34;;;;;;;2.85;1.45;;;8.30;99.90;;;;;;4383601;32;20140;-74
2022/11/26 06:59:01;;;;;;;2.83;1.33;;;8.30;99.90;;;;;;4376442;32;20082;-72
2022/11/26 07:01:26;;;;;;;2.15;1.37;;;8.30;99.90;;;;;;4386773;32;20058;-71
2022/11/26 07:03:53;;;;;;;2.65;2.15;;;8.30;99.90;;;;;;4379664;32;20415;-74
2022/11/26 07:06:28;;;;;;;1.50;1.05;;;8.30;99.90;;;;;;4370304;32;20074;-71
2022/11/26 07:08:56;;;;;;;10.05;2.25;;;8.30;99.90;;;;;;4383948;32;20825;-70
2022/11/26 07:11:22;;;;;;;2.47;0.88;;;8.30;99.90;;;;;;4385387;32;20070;-70
2022/11/26 07:13:48;;;;;;;3.70;1.62;;;8.30;99.90;;;;;;4383349;32;20082;-75
2022/11/26 07:16:14;;;;;;;0.62;0.62;;;8.30;99.90;;;;;;4376829;32;20433;-72
2022/11/26 07:18:39;;;;;;;0.80;0.80;;;8.30;99.90;;;;;;4391303;32;20058;-71
2022/11/26 07:21:09;;;;;;;0.62;0.62;;;8.30;99.90;;;;;;4387792;32;20565;-70
2022/11/26 07:23:34;;;;;;;1.42;1.33;;;8.30;99.90;;;;;;4386631;32;20070;-72
2022/11/26 07:26:02;;;;;;;0.62;0.62;;;8.30;99.90;;;;;;4384321;32;20082;-74
2022/11/26 07:28:28;;;;;;;4.68;1.10;;;8.30;99.90;;;;;;4376209;32;20070;-72
2022/11/26 07:30:53;;;;;;;5.60;1.52;;;8.30;99.90;;;;;;4388728;32;82775;-70
2022/11/26 07:33:19;;;;;;;0.73;0.55;;;8.30;99.90;;;;;;4382983;32;20100;-72
2022/11/26 07:35:44;;;;;;;0.60;0.60;;;8.30;99.90;;;;;;4369290;32;20083;-72
2022/11/26 07:38:10;;;;;;;0.40;0.40;;;8.30;99.90;;;;;;4388239;32;20073;-70
2022/11/26 07:40:35;;;;;;;0.95;0.62;;;8.30;99.90;;;;;;4383532;32;21405;-70
2022/11/26 07:43:01;;;;;;;2.20;1.87;;;8.30;99.90;;;;;;4387212;32;20082;-70
2022/11/26 07:45:26;;;;;;;1.48;1.35;;;8.30;99.90;;;;;;4376281;32;20070;-69
2022/11/26 07:47:52;;;;;;;6.72;3.03;;;8.30;99.90;;;;;;4388419;32;20199;-70
2022/11/26 07:50:17;;;;;;;4.05;2.75;;;8.40;99.90;;;;;;4389133;32;20435;-72
2022/11/26 07:52:43;;;;;;;0.75;0.75;;;8.40;99.90;;;;;;4387361;32;20098;-70
2022/11/26 07:55:08;;;;;;;0.50;0.50;;;8.40;99.90;;;;;;4387910;32;20129;-69
2022/11/26 07:57:34;;;;;;;1.48;0.95;;;8.40;99.90;;;;;;4382142;32;20078;-73
2022/11/26 07:59:59;;;;;;;1.65;1.30;;;8.40;99.90;;;;;;4384149;32;20082;-72
2022/11/26 08:02:25;;;;;;;0.40;0.40;;;8.40;99.90;;;;;;4388688;32;20082;-73
2022/11/26 08:04:50;;;;;;;5.53;1.90;;;8.40;99.90;;;;;;4369258;32;20650;-72
2022/11/26 08:07:16;;;;;;;2.40;0.55;;;8.40;99.90;;;;;;4375578;32;20086;-70
2022/11/26 08:09:41;;;;;;;1.05;0.98;;;8.50;99.90;;;;;;4386302;32;20127;-72
2022/11/26 08:12:07;;;;;;;3.20;1.60;;;8.40;99.90;;;;;;4389086;32;20558;-70
2022/11/26 08:14:32;;;;;;;4.57;1.15;;;8.40;99.90;;;;;;4381981;32;20078;-71
2022/11/26 08:16:57;;;;;;;1.55;0.80;;;8.40;99.90;;;;;;4382303;32;20399;-71
2022/11/26 08:19:23;;;;;;;0.93;0.93;;;8.40;99.90;;;;;;4387435;32;20083;-71
2022/11/26 08:21:49;;;;;;;0.60;0.60;;;8.40;99.90;;;;;;4386084;32;20145;-71
2022/11/26 08:24:16;;;;;;;0.73;0.73;;;8.30;99.90;;;;;;4386465;32;20066;-70
2022/11/26 08:26:43;;;;;;;3.12;1.35;;;8.30;99.90;;;;;;4384420;32;20510;-74
2022/11/26 08:29:08;;;;;;;0.45;0.45;;;8.30;99.90;;;;;;4380822;32;20086;-70
2022/11/26 08:31:34;;;;;;;1.35;0.93;;;8.30;99.90;;;;;;4387280;32;20069;-71
2022/11/26 08:34:00;;;;;;;3.40;1.02;;;8.30;99.90;;;;;;4373436;32;20182;-72
2022/11/26 08:36:28;;;;;;;0.30;0.30;;;8.40;99.90;;;;;;4367891;32;20073;-71
2022/11/26 08:38:53;;;;;;;0.80;0.80;;;8.40;99.90;;;;;;4392190;32;20053;-70
2022/11/26 08:41:19;;;;;;;4.70;0.88;;;8.40;99.90;;;;;;4386310;32;20087;-71
2022/11/26 08:43:44;;;;;;;2.30;0.62;;;8.40;99.90;;;;;;4384263;32;20633;-73
2022/11/26 08:46:10;;;;;;;0.40;0.40;;;8.50;99.90;;;;;;4378279;32;20400;-70
2022/11/26 08:48:35;;;;;;;11.77;2.10;;;8.50;99.90;;;;;;4386625;32;20146;-71
2022/11/26 08:51:03;;;;;;;0.73;0.73;;;8.50;99.90;;;;;;4388359;32;20162;-71
2022/11/26 08:53:31;;;;;;;0.50;0.50;;;8.50;99.90;;;;;;4389903;32;20054;-71
2022/11/26 08:56:01;;;;;;;1.20;1.10;;;8.50;99.90;;;;;;4384903;32;20124;-71
2022/11/26 08:58:27;;;;;;;0.68;0.68;;;8.40;99.90;;;;;;4372338;32;20102;-73
2022/11/26 09:00:52;;;;;;;1.27;0.88;;;8.50;99.90;;;;;;4385562;32;20145;-72
2022/11/26 09:03:18;;;;;;;0.40;0.40;;;8.50;99.90;;;;;;4381916;32;20589;-70
2022/11/26 09:05:43;;;;;;;6.93;1.17;;;8.50;99.90;;;;;;4370943;32;20062;-71
2022/11/26 09:08:09;;;;;;;1.33;0.85;;;8.50;99.90;;;;;;4386580;32;20109;-70
2022/11/26 09:10:34;;;;;;;1.25;1.00;;;8.50;99.90;;;;;;4386074;32;20079;-71
2022/11/26 09:13:00;;;;;;;0.40;0.40;;;8.50;99.90;;;;;;4385465;32;20158;-71
2022/11/26 09:15:25;;;;;;;0.70;0.70;;;8.50;99.90;;;;;;4369305;32;20102;-71
2022/11/26 09:17:51;;;;;;;0.30;0.30;;;8.50;99.90;;;;;;4383179;32;20070;-70
2022/11/26 09:20:16;;;;;;;5.40;1.60;;;8.50;99.90;;;;;;4390663;32;20069;-71
2022/11/26 09:22:42;;;;;;;1.15;0.93;;;8.50;99.90;;;;;;4392023;32;20517;-71
2022/11/26 09:25:08;;;;;;;0.50;0.50;;;8.50;99.90;;;;;;4383106;32;20082;-69
2022/11/26 09:27:34;;;;;;;2.30;0.77;;;8.50;99.90;;;;;;4380342;32;20086;-73
2022/11/26 09:29:59;;;;;;;1.70;0.73;;;8.60;99.90;;;;;;4380884;32;20561;-70
2022/11/26 09:32:24;;;;;;;0.77;0.75;;;8.60;99.90;;;;;;4387710;32;20057;-73
2022/11/26 09:34:51;;;;;;;13.45;0.70;;;8.60;99.90;;;;;;4366827;32;20074;-74
2022/11/26 09:37:17;;;;;;;0.52;0.52;;;8.60;99.90;;;;;;4374561;32;20062;-72
2022/11/26 09:39:43;;;;;;;12.50;1.42;;;8.60;99.90;;;;;;4385820;32;20407;-70
2022/11/26 09:42:37;;;;;;;0.73;0.73;;;8.60;99.90;;;;;;4389841;32;20247;-71
2022/11/26 09:45:25;;;;;;;2.83;1.40;;;8.60;99.90;;;;;;4362331;32;20102;-71
2022/11/26 09:47:53;;;;;;;6.80;1.55;;;8.60;99.90;;;;;;4386577;32;20105;-70
2022/11/26 09:50:25;;;;;;;0.68;0.68;;;8.50;99.90;;;;;;4387085;32;20069;-74
2022/11/26 09:53:13;;;;;;;0.30;0.30;;;8.50;99.90;;;;;;4391031;32;20577;-70
2022/11/26 09:55:42;;;;;;;1.48;1.05;;;8.60;99.90;;;;;;4373630;32;20088;-70
2022/11/26 09:58:16;;;;;;;0.68;0.68;;;8.60;99.90;;;;;;4378238;32;20062;-72
2022/11/26 10:00:47;;;;;;;0.40;0.40;;;8.60;99.90;;;;;;4385546;32;20062;-71
2022/11/26 10:03:16;;;;;;;0.75;0.75;;;8.60;99.90;;;;;;4379337;32;20611;-72
2022/11/26 10:05:50;;;;;;;2.10;1.10;;;8.60;99.90;;;;;;4368227;32;20082;-72
2022/11/26 10:08:55;;;;;;;18.65;2.40;;;8.60;99.90;;;;;;4382984;32;20090;-71
2022/11/26 10:11:47;;;;;;;4.97;0.62;;;8.70;99.90;;;;;;4363571;32;20157;-70
2022/11/26 10:14:28;;;;;;;0.98;0.95;;;8.70;99.90;;;;;;4370661;32;20182;-72
2022/11/26 10:17:16;;;;;;;3.95;1.75;;;8.70;99.90;;;;;;4369433;32;20110;-69
2022/11/26 10:20:12;;;;;;;2.05;1.65;;;8.70;99.90;;;;;;4386986;32;20523;-70
2022/11/26 10:22:50;;;;;;;13.38;1.42;;;8.70;99.90;;;;;;4377252;32;20102;-70
2022/11/26 10:25:19;;;;;;;0.50;0.50;;;8.60;99.90;;;;;;4391194;32;20087;-69
2022/11/26 10:27:47;;;;;;;4.95;2.20;;;8.60;99.90;;;;;;4380095;32;20169;-74
2022/11/26 10:30:19;;;;;;;5.37;1.55;;;8.60;99.90;;;;;;4384667;32;20087;-70
2022/11/26 10:32:46;;;;;;;3.60;0.85;;;8.60;99.90;;;;;;4386500;32;20066;-72
2022/11/26 10:35:21;;;;;;;26.65;0.95;;;8.60;99.90;;;;;;4368863;32;20174;-72
2022/11/26 10:37:47;;;;;;;4.07;2.42;;;8.60;99.90;;;;;;4379046;32;20070;-70
2022/11/26 10:40:24;;;;;;;3.17;1.58;;;8.60;99.90;;;;;;4386210;32;20062;-71
2022/11/26 10:43:01;;;;;;;0.70;0.70;;;8.60;99.90;;;;;;4389163;32;20063;-70
2022/11/26 10:45:40;;;;;;;0.82;0.82;;;8.50;99.90;;;;;;4373608;32;20062;-72
2022/11/26 10:48:24;;;;;;;4.22;1.10;;;8.50;99.90;;;;;;4385788;32;20090;-74
2022/11/26 10:50:57;;;;;;;0.40;0.40;;;8.60;99.90;;;;;;4370673;32;20133;-71
2022/11/26 10:53:25;;;;;;;9.80;1.80;;;8.50;99.90;;;;;;4387342;32;20129;-72
2022/11/26 10:55:53;;;;;;;1.35;0.70;;;8.50;99.90;;;;;;4386427;32;20089;-73
2022/11/26 10:58:23;;;;;;;3.87;2.40;;;8.50;99.90;;;;;;4371697;32;20066;-74
2022/11/26 11:00:51;;;;;;;0.60;0.60;;;8.50;99.90;;;;;;4384019;32;20055;-70
2022/11/26 11:03:21;;;;;;;1.05;1.00;;;8.50;99.90;;;;;;4381234;32;20151;-73
2022/11/26 11:05:47;;;;;;;7.90;1.12;;;8.50;99.90;;;;;;4365178;32;20082;-74
2022/11/26 11:08:27;;;;;;;0.50;0.50;;;8.50;99.90;;;;;;4384246;32;20074;-70
2022/11/26 11:10:56;;;;;;;9.10;0.85;;;8.50;99.90;;;;;;4381762;32;20074;-71
2022/11/26 11:13:24;;;;;;;0.50;0.50;;;8.50;99.90;;;;;;4383416;32;20502;-73
2022/11/26 11:15:59;;;;;;;0.65;0.65;;;8.50;99.90;;;;;;4375431;32;20179;-70
2022/11/26 11:18:25;;;;;;;1.10;0.75;;;8.60;99.90;;;;;;4386981;32;20062;-69
2022/11/26 11:20:54;;;;;;;0.90;0.77;;;8.60;99.90;;;;;;4384422;32;20107;-71
2022/11/26 11:23:23;;;;;;;2.37;1.15;;;8.60;99.90;;;;;;4388430;32;20066;-73
2022/11/26 11:26:11;;;;;;;0.47;0.47;;;8.50;99.90;;;;;;4381869;32;20185;-70
2022/11/26 11:28:41;;;;;;;0.85;0.82;;;8.60;99.90;;;;;;4377059;32;20126;-71
2022/11/26 11:31:12;;;;;;;1.52;0.85;;;8.60;99.90;;;;;;4386190;32;20083;-71
2022/11/26 11:33:38;;;;;;;0.50;0.50;;;8.60;99.90;;;;;;4377109;32;20093;-72
2022/11/26 11:36:19;;;;;;;2.12;1.05;;;8.60;99.90;;;;;;4368892;32;20136;-74
2022/11/26 11:38:48;;;;;;;0.68;0.68;;;8.60;99.90;;;;;;4386875;32;20467;-73
2022/11/26 11:41:22;;;;;;;40.20;2.05;;;8.60;99.90;;;;;;4389793;32;20094;-70
2022/11/26 11:43:48;;;;;;;2.45;1.20;;;8.70;99.90;;;;;;4382332;32;20089;-70
2022/11/26 11:46:36;;;;;;;3.42;0.95;;;8.70;99.90;;;;;;4373463;32;20078;-70
2022/11/26 11:49:23;;;;;;;0.90;0.90;;;8.70;99.90;;;;;;4387910;32;20106;-69
2022/11/26 11:52:12;;;;;;;6.32;1.00;;;8.60;99.90;;;;;;4370894;32;20089;-70
2022/11/26 11:54:46;;;;;;;1.95;1.17;;;8.60;99.90;;;;;;4386868;32;20082;-70
2022/11/26 11:57:48;;;;;;;1.27;0.60;;;8.60;99.90;;;;;;4379671;32;20110;-72
2022/11/26 12:00:17;;;;;;;0.52;0.52;;;8.60;99.90;;;;;;4376256;32;20087;-71
2022/11/26 12:03:10;;;;;;;0.55;0.52;;;8.60;99.90;;;;;;4382120;32;20094;-72
2022/11/26 12:06:04;;;;;;;1.15;0.80;;;8.60;99.90;;;;;;4356508;32;20146;-70
2022/11/26 12:08:55;;;;;;;0.55;0.55;;;8.60;99.90;;;;;;4377354;32;20070;-71
2022/11/26 12:11:41;;;;;;;0.65;0.65;;;8.60;99.90;;;;;;4378405;32;20074;-70
2022/11/26 12:14:21;;;;;;;17.25;0.88;;;8.60;99.90;;;;;;4367743;32;20482;-73
2022/11/26 12:16:52;;;;;;;0.43;0.43;;;8.60;99.90;;;;;;4381231;32;20090;-70
2022/11/26 12:19:29;;;;;;;0.35;0.35;;;8.60;99.90;;;;;;4390260;32;20106;-71
2022/11/26 12:22:03;;;;;;;0.43;0.43;;;8.60;99.90;;;;;;4390766;32;20121;-72
2022/11/26 12:24:39;;;;;;;0.45;0.45;;;8.60;99.90;;;;;;4387632;32;20566;-70
2022/11/26 12:27:18;;;;;;;0.68;0.68;;;8.60;99.90;;;;;;4382261;32;20417;-75
2022/11/26 12:29:50;;;;;;;0.43;0.43;;;8.70;99.90;;;;;;4382834;32;20105;-69
2022/11/26 12:32:21;;;;;;;0.47;0.47;;;8.70;99.90;;;;;;4390596;32;20070;-71
2022/11/26 12:34:51;;;;;;;0.65;0.60;;;8.60;99.90;;;;;;4371774;32;20084;-72
2022/11/26 12:37:26;;;;;;;0.45;0.45;;;8.60;99.90;;;;;;4377288;32;20118;-70
2022/11/26 12:40:06;;;;;;;0.50;0.50;;;8.60;99.90;;;;;;4387593;32;20066;-71
2022/11/26 12:42:44;;;;;;;0.35;0.35;;;8.60;99.90;;;;;;4386360;32;20074;-71
2022/11/26 12:45:31;;;;;;;2.72;1.02;;;8.60;99.90;;;;;;4372838;32;20083;-72
2022/11/26 12:48:01;;;;;;;0.50;0.50;;;8.70;99.90;;;;;;4372154;32;20114;-71
2022/11/26 12:50:40;;;;;;;0.60;0.60;;;8.60;99.90;;;;;;4387911;32;20054;-72
2022/11/26 12:53:20;;;;;;;0.88;0.88;;;8.60;99.90;;;;;;4387812;32;20518;-70
2022/11/26 12:55:58;;;;;;;21.85;1.40;;;8.60;99.90;;;;;;4383165;32;20066;-70
2022/11/26 12:58:43;;;;;;;1.05;0.50;;;8.60;99.90;;;;;;4377481;32;20067;-72
2022/11/26 13:01:10;;;;;;;0.50;0.50;;;8.60;99.90;;;;;;4372926;32;20066;-71
2022/11/26 13:03:35;;;;;;;0.82;0.82;;;8.50;99.90;;;;;;4378217;32;20111;-74
2022/11/26 13:06:41;;;;;;;1.95;0.47;;;8.60;99.90;;;;;;4369833;32;20050;-74